Time;durP1;ratioP1;P1;durP2;ratioP2;P2;SDS_P1;SDS_P2;PMS_P1;PMS_P2;Temp;Humidity;BMP_temperature;BMP_pressure;BME280_temperature;BME280_humidity;BME280_pressure;Samples;Min_cycle;Max_cycle;Signal;HPM_P1;HPM_P2
2022/05/26 04:01:06;;;;;;;0.83;0.80;;;15.10;99.90;;;;;;5681182;23;21034;-65
2022/05/26 04:03:33;;;;;;;1.60;0.70;;;15.20;99.90;;;;;;4994361;28;20477;-64
2022/05/26 04:06:00;;;;;;;0.90;0.80;;;15.10;99.90;;;;;;4994045;28;20445;-65
2022/05/26 04:08:27;;;;;;;1.73;0.70;;;15.20;99.90;;;;;;4994297;28;20449;-64
2022/05/26 04:10:53;;;;;;;1.80;0.70;;;15.20;99.90;;;;;;4994141;28;20477;-64
2022/05/26 04:13:20;;;;;;;2.50;1.10;;;15.20;99.90;;;;;;4994349;28;20457;-65
2022/05/26 04:15:47;;;;;;;0.70;0.70;;;15.20;99.90;;;;;;4994228;28;20473;-64
2022/05/26 04:18:15;;;;;;;0.90;0.90;;;15.30;99.90;;;;;;4995548;28;20524;-65
2022/05/26 04:20:42;;;;;;;0.70;0.70;;;15.30;99.90;;;;;;4997963;28;20481;-65
2022/05/26 04:23:09;;;;;;;0.80;0.80;;;15.30;99.90;;;;;;4997873;28;20464;-64
2022/05/26 04:25:36;;;;;;;1.07;0.97;;;15.30;99.90;;;;;;4997919;28;20460;-64
2022/05/26 04:28:03;;;;;;;1.17;1.03;;;15.30;99.90;;;;;;4997632;28;20453;-64
2022/05/26 04:30:29;;;;;;;1.00;0.90;;;15.40;99.90;;;;;;4997671;28;20481;-65
2022/05/26 04:32:57;;;;;;;0.80;0.70;;;15.50;99.90;;;;;;4997739;28;20461;-65
2022/05/26 04:35:25;;;;;;;2.10;0.83;;;15.50;99.90;;;;;;4998156;28;20913;-64
2022/05/26 04:37:52;;;;;;;1.63;1.00;;;15.60;99.90;;;;;;4997370;28;20875;-64
2022/05/26 04:40:19;;;;;;;2.10;1.10;;;15.60;99.90;;;;;;4997618;28;20824;-65
2022/05/26 04:42:45;;;;;;;0.80;0.80;;;15.70;99.90;;;;;;4997203;28;20948;-65
2022/05/26 04:45:14;;;;;;;5.40;1.07;;;15.70;99.90;;;;;;4997566;28;20457;-64
2022/05/26 04:47:41;;;;;;;1.70;1.00;;;15.80;99.90;;;;;;4997615;28;20464;-63
2022/05/26 04:50:09;;;;;;;2.57;1.20;;;15.90;99.90;;;;;;4997452;28;20458;-63
2022/05/26 04:52:37;;;;;;;1.67;1.00;;;15.90;99.90;;;;;;4997175;28;20945;-63
2022/05/26 04:55:05;;;;;;;2.87;0.90;;;15.90;99.90;;;;;;4997241;28;20454;-63
2022/05/26 04:57:32;;;;;;;1.00;0.80;;;15.80;99.90;;;;;;4997014;28;20473;-64
2022/05/26 04:59:59;;;;;;;2.90;0.80;;;15.80;99.90;;;;;;4997203;28;20458;-64
2022/05/26 05:02:26;;;;;;;2.80;0.80;;;15.80;99.90;;;;;;4996844;28;20485;-64
2022/05/26 05:04:53;;;;;;;1.27;1.17;;;15.80;99.90;;;;;;4997269;28;20852;-64
2022/05/26 05:07:20;;;;;;;1.90;1.00;;;15.80;99.90;;;;;;4996825;28;20454;-64
2022/05/26 05:09:49;;;;;;;1.20;0.80;;;15.70;99.90;;;;;;4996929;28;20457;-63
2022/05/26 05:12:18;;;;;;;1.90;1.03;;;15.70;99.90;;;;;;4997010;28;20880;-63
2022/05/26 05:14:47;;;;;;;1.27;0.80;;;15.70;99.90;;;;;;4997018;28;20460;-64
2022/05/26 05:17:16;;;;;;;2.43;0.87;;;15.70;99.90;;;;;;4997007;28;20473;-64
2022/05/26 05:19:43;;;;;;;0.90;0.90;;;15.70;99.90;;;;;;4996858;28;20550;-64
2022/05/26 05:22:16;;;;;;;1.00;1.00;;;15.80;99.90;;;;;;4996897;28;20477;-64
2022/05/26 05:24:49;;;;;;;2.10;1.00;;;15.90;99.90;;;;;;4997067;28;20442;-64
2022/05/26 05:27:20;;;;;;;1.40;0.70;;;16.00;99.90;;;;;;4997176;28;20434;-64
2022/05/26 05:29:50;;;;;;;1.37;0.83;;;16.10;99.90;;;;;;4995820;28;20868;-64
2022/05/26 05:32:21;;;;;;;1.00;0.90;;;16.20;99.90;;;;;;4996852;28;20474;-64
2022/05/26 05:34:53;;;;;;;0.80;0.80;;;16.30;99.90;;;;;;4996865;28;20457;-64
2022/05/26 05:37:20;;;;;;;1.10;1.00;;;16.30;99.90;;;;;;5001468;28;20466;-64
2022/05/26 05:39:48;;;;;;;1.00;0.90;;;16.40;99.90;;;;;;5007881;28;20517;-64
2022/05/26 05:42:15;;;;;;;3.27;1.20;;;16.50;99.90;;;;;;4996832;28;20525;-64
2022/05/26 05:44:43;;;;;;;1.40;1.30;;;16.60;99.90;;;;;;4996563;28;20834;-63
2022/05/26 05:47:09;;;;;;;0.63;0.53;;;16.70;99.90;;;;;;4996537;28;20545;-64
2022/05/26 05:49:36;;;;;;;0.90;0.90;;;16.80;99.90;;;;;;4996437;28;20837;-63
2022/05/26 05:52:09;;;;;;;0.70;0.70;;;16.90;99.90;;;;;;4996411;28;20474;-64
2022/05/26 05:54:37;;;;;;;1.30;1.00;;;16.90;99.90;;;;;;4996301;28;20457;-63
2022/05/26 05:57:06;;;;;;;1.80;0.90;;;17.00;99.90;;;;;;4996383;28;20481;-64
2022/05/26 05:59:33;;;;;;;3.83;1.27;;;17.20;99.90;;;;;;4996328;28;20464;-63
2022/05/26 06:02:00;;;;;;;2.67;1.40;;;17.30;99.90;;;;;;4998532;28;20482;-64
2022/05/26 06:04:27;;;;;;;1.53;0.80;;;17.50;99.90;;;;;;4998630;28;20460;-64
2022/05/26 06:06:54;;;;;;;1.33;1.23;;;17.60;99.90;;;;;;4997210;28;20451;-64
2022/05/26 06:09:21;;;;;;;1.70;1.00;;;17.60;99.90;;;;;;4996080;28;20465;-64
2022/05/26 06:11:49;;;;;;;1.50;0.90;;;17.70;99.90;;;;;;4995897;28;20478;-64
2022/05/26 06:14:18;;;;;;;1.17;0.90;;;17.70;99.90;;;;;;4996012;28;20460;-64
2022/05/26 06:16:46;;;;;;;1.00;1.00;;;17.70;99.90;;;;;;4995853;28;20477;-63
2022/05/26 06:19:13;;;;;;;1.37;1.00;;;17.70;99.90;;;;;;4995535;28;21042;-63
2022/05/26 06:21:41;;;;;;;1.23;1.07;;;17.70;99.90;;;;;;4995741;28;20837;-63
2022/05/26 06:24:09;;;;;;;2.10;0.90;;;17.80;99.90;;;;;;4995537;28;20516;-64
2022/05/26 06:26:36;;;;;;;1.37;1.23;;;17.70;99.90;;;;;;4995621;28;20450;-64
2022/05/26 06:37:14;;;;;;;1.60;1.10;;;18.00;99.90;;;;;;4995293;28;20616;-64
2022/05/26 06:39:41;;;;;;;1.10;1.00;;;18.10;99.90;;;;;;4995559;28;20442;-64
2022/05/26 06:42:09;;;;;;;1.27;1.10;;;18.20;99.90;;;;;;4995124;28;20520;-64
2022/05/26 06:44:38;;;;;;;2.83;0.80;;;18.30;99.90;;;;;;4995524;28;20461;-64
2022/05/26 06:47:09;;;;;;;1.03;0.90;;;18.40;99.90;;;;;;4995195;28;20541;-64
2022/05/26 06:49:38;;;;;;;1.13;0.77;;;18.50;99.90;;;;;;4995380;28;20497;-64
2022/05/26 06:52:06;;;;;;;0.90;0.87;;;18.60;99.90;;;;;;4995164;28;20499;-64
2022/05/26 06:54:33;;;;;;;1.07;0.97;;;18.60;99.90;;;;;;4995082;28;20438;-64
2022/05/26 06:57:00;;;;;;;1.03;0.70;;;18.70;99.90;;;;;;4995203;28;20478;-64
2022/05/26 06:59:27;;;;;;;0.80;0.80;;;18.80;99.90;;;;;;4995274;28;20482;-64
2022/05/26 07:01:54;;;;;;;0.80;0.80;;;19.10;99.90;;;;;;4994947;28;20486;-64
2022/05/26 07:04:23;;;;;;;6.33;1.10;;;19.40;99.90;;;;;;4995461;28;20818;-64
2022/05/26 07:06:51;;;;;;;0.97;0.80;;;19.60;99.90;;;;;;4995115;28;20940;-63
2022/05/26 07:09:19;;;;;;;1.03;0.87;;;19.60;99.90;;;;;;4994873;28;20485;-64
2022/05/26 07:11:46;;;;;;;2.67;1.20;;;19.80;99.90;;;;;;4995149;28;20480;-64
2022/05/26 07:14:13;;;;;;;1.00;0.80;;;20.00;99.90;;;;;;4994986;28;20480;-63
2022/05/26 07:16:40;;;;;;;2.50;1.20;;;20.30;99.90;;;;;;4994633;28;20477;-64
2022/05/26 07:19:07;;;;;;;0.80;0.70;;;20.60;99.50;;;;;;4994902;28;20450;-64
2022/05/26 07:21:35;;;;;;;1.17;0.90;;;20.80;98.50;;;;;;4995286;28;20481;-64
2022/05/26 07:24:02;;;;;;;1.83;0.80;;;20.90;96.00;;;;;;4995211;28;20949;-65
2022/05/26 07:26:32;;;;;;;1.60;1.00;;;21.20;97.20;;;;;;4995029;28;20453;-64
2022/05/26 07:28:59;;;;;;;4.43;1.30;;;21.60;95.80;;;;;;4994738;28;20458;-64
2022/05/26 07:31:26;;;;;;;0.90;0.90;;;22.00;94.30;;;;;;4994721;28;20474;-64
2022/05/26 07:33:53;;;;;;;0.90;0.90;;;22.20;94.00;;;;;;4995498;28;20465;-64
2022/05/26 07:41:50;;;;;;;1.57;1.00;;;22.80;92.20;;;;;;4994620;28;20931;-64
2022/05/26 07:44:17;;;;;;;0.80;0.80;;;23.00;92.10;;;;;;4994260;28;20445;-64
2022/05/26 07:46:44;;;;;;;2.10;0.93;;;23.30;90.90;;;;;;4994745;28;20485;-64
2022/05/26 07:49:12;;;;;;;1.33;1.10;;;23.30;89.00;;;;;;4994719;28;20450;-64
2022/05/26 07:51:38;;;;;;;0.93;0.80;;;23.20;90.10;;;;;;4994730;28;20472;-64
2022/05/26 07:54:06;;;;;;;1.10;0.93;;;23.10;90.60;;;;;;4997556;28;20461;-64
2022/05/26 07:56:36;;;;;;;1.40;0.90;;;23.00;90.00;;;;;;4998249;28;20523;-64
2022/05/26 07:59:04;;;;;;;1.33;1.03;;;22.80;90.00;;;;;;4998286;28;20820;-64
2022/05/26 08:01:30;;;;;;;1.50;1.03;;;22.40;89.10;;;;;;4998156;28;20509;-64
2022/05/26 08:03:57;;;;;;;3.87;1.20;;;22.20;90.00;;;;;;4998335;28;20466;-63
2022/05/26 08:06:24;;;;;;;2.30;1.10;;;22.00;91.30;;;;;;4997993;28;20535;-63
2022/05/26 08:08:51;;;;;;;3.23;0.97;;;22.00;92.10;;;;;;4998544;28;20450;-63
2022/05/26 08:11:19;;;;;;;1.23;1.00;;;22.00;91.80;;;;;;4998378;28;20484;-64
2022/05/26 08:13:46;;;;;;;1.00;1.00;;;22.00;90.90;;;;;;4998345;28;20453;-63
2022/05/26 08:16:13;;;;;;;2.27;0.80;;;21.90;91.00;;;;;;4997994;28;20454;-63
2022/05/26 08:18:40;;;;;;;1.73;1.00;;;21.80;91.10;;;;;;4998039;28;20548;-64
2022/05/26 08:21:08;;;;;;;1.17;1.07;;;21.60;91.20;;;;;;4999134;28;20547;-64
2022/05/26 08:23:35;;;;;;;0.97;0.97;;;21.50;92.20;;;;;;5005777;28;20460;-64
2022/05/26 08:26:01;;;;;;;2.23;0.87;;;21.40;92.60;;;;;;5002356;28;20449;-64
2022/05/26 08:28:29;;;;;;;1.43;0.87;;;21.40;93.10;;;;;;4999720;28;20458;-64
2022/05/26 08:30:56;;;;;;;1.50;1.03;;;21.30;92.80;;;;;;4997951;28;20473;-64
2022/05/26 08:33:23;;;;;;;3.00;1.47;;;21.30;92.30;;;;;;4997505;28;20548;-64
2022/05/26 08:35:50;;;;;;;0.80;0.80;;;21.20;92.30;;;;;;4997844;28;20515;-64
2022/05/26 08:38:16;;;;;;;1.00;1.00;;;21.00;92.30;;;;;;4997640;28;20836;-64
2022/05/26 08:40:49;;;;;;;0.93;0.93;;;21.00;93.60;;;;;;4997666;28;20484;-64
2022/05/26 08:43:20;;;;;;;1.03;0.70;;;21.00;93.70;;;;;;4997859;28;20446;-64
2022/05/26 08:45:50;;;;;;;1.80;1.03;;;21.00;93.50;;;;;;4997697;28;20442;-64
2022/05/26 08:48:34;;;;;;;3.47;1.00;;;21.10;92.90;;;;;;4998461;28;20781;-64
2022/05/26 08:51:04;;;;;;;1.90;0.80;;;21.30;93.80;;;;;;4997161;28;20485;-64
2022/05/26 08:53:34;;;;;;;2.50;0.90;;;21.40;93.00;;;;;;4997141;28;20453;-64
2022/05/26 08:56:01;;;;;;;1.27;1.00;;;21.40;92.90;;;;;;4997288;28;20489;-64
2022/05/26 08:58:33;;;;;;;2.03;1.30;;;21.50;92.90;;;;;;4997182;28;20570;-64
2022/05/26 09:01:04;;;;;;;1.13;0.90;;;21.60;94.20;;;;;;4996792;28;20992;-64
2022/05/26 09:03:33;;;;;;;3.17;0.80;;;21.70;93.50;;;;;;4996958;28;20438;-64
2022/05/26 09:06:04;;;;;;;1.77;1.00;;;21.90;92.60;;;;;;4996866;28;20826;-64
2022/05/26 09:14:06;;;;;;;1.70;0.77;;;22.50;92.10;;;;;;4996866;28;20426;-64
2022/05/26 09:16:41;;;;;;;0.97;0.60;;;22.60;91.90;;;;;;4996858;28;20516;-64
2022/05/26 09:19:12;;;;;;;12.83;1.20;;;22.70;91.10;;;;;;4996723;28;20461;-64
2022/05/26 09:21:40;;;;;;;2.97;1.00;;;22.80;91.30;;;;;;4997136;28;20479;-64
2022/05/26 09:24:17;;;;;;;3.90;1.20;;;22.80;90.40;;;;;;4996638;28;20995;-64
2022/05/26 09:26:46;;;;;;;2.00;1.20;;;22.80;91.30;;;;;;4996539;28;20445;-64
2022/05/26 09:29:13;;;;;;;1.00;1.00;;;22.80;90.50;;;;;;4996831;28;20457;-64
2022/05/26 09:31:47;;;;;;;1.10;0.80;;;22.80;90.50;;;;;;4996628;28;20474;-64
2022/05/26 09:34:18;;;;;;;1.73;0.90;;;22.90;90.80;;;;;;4996768;28;20442;-64
2022/05/26 09:36:48;;;;;;;1.07;0.83;;;22.90;91.30;;;;;;4996709;28;20496;-64
2022/05/26 09:39:20;;;;;;;1.40;0.90;;;22.90;90.20;;;;;;4996620;28;21003;-64
2022/05/26 09:41:49;;;;;;;1.93;1.10;;;23.00;90.30;;;;;;4996555;28;20466;-64
2022/05/26 09:44:50;;;;;;;2.53;1.33;;;22.90;90.00;;;;;;4996486;28;20508;-64
2022/05/26 09:47:28;;;;;;;0.83;0.83;;;22.80;90.50;;;;;;4997115;28;20469;-64
2022/05/26 09:49:57;;;;;;;1.20;1.10;;;22.90;90.90;;;;;;4998195;28;20446;-64
2022/05/26 09:52:28;;;;;;;1.90;0.97;;;22.90;90.00;;;;;;4996466;28;21006;-64
2022/05/26 09:55:12;;;;;;;0.80;0.80;;;23.00;90.10;;;;;;4996466;28;20437;-68
2022/05/26 09:57:38;;;;;;;0.70;0.70;;;23.00;90.20;;;;;;4996274;28;20873;-64
2022/05/26 10:00:29;;;;;;;1.10;1.10;;;23.00;90.70;;;;;;4996278;28;20465;-64
2022/05/26 10:03:00;;;;;;;0.90;0.90;;;22.90;88.20;;;;;;4996112;28;20445;-64
2022/05/26 10:05:38;;;;;;;1.17;1.07;;;22.80;89.60;;;;;;4996126;28;20434;-64
2022/05/26 10:08:19;;;;;;;2.13;1.53;;;22.70;90.40;;;;;;4996115;28;20496;-64
2022/05/26 10:10:53;;;;;;;1.80;1.00;;;22.60;90.50;;;;;;4996047;28;20537;-64
2022/05/26 10:13:37;;;;;;;4.57;1.10;;;22.50;89.20;;;;;;4996102;28;20485;-64
2022/05/26 10:16:13;;;;;;;1.10;1.10;;;22.40;89.70;;;;;;4995440;28;20434;-64
2022/05/26 10:18:56;;;;;;;2.63;1.30;;;22.30;90.90;;;;;;4995894;28;20553;-64
2022/05/26 10:21:37;;;;;;;2.47;1.13;;;22.40;91.20;;;;;;4995864;28;20474;-64
2022/05/26 10:24:39;;;;;;;3.03;1.70;;;22.40;91.60;;;;;;4995804;28;20484;-64
2022/05/26 10:27:17;;;;;;;0.93;0.93;;;22.40;90.50;;;;;;4992243;28;20831;-64
2022/05/26 10:30:01;;;;;;;1.17;1.07;;;22.50;91.50;;;;;;4995752;28;20473;-64
2022/05/26 10:32:38;;;;;;;1.23;1.00;;;22.60;91.90;;;;;;4995745;28;20981;-64
2022/05/26 10:35:21;;;;;;;0.80;0.80;;;22.90;91.70;;;;;;4999073;28;20500;-64
2022/05/26 10:38:05;;;;;;;1.27;0.80;;;23.10;91.20;;;;;;4997697;28;20468;-64
2022/05/26 10:40:39;;;;;;;2.30;1.10;;;23.30;90.70;;;;;;4996661;28;20480;-64
2022/05/26 10:43:09;;;;;;;1.07;1.00;;;23.50;87.70;;;;;;4995526;28;20442;-63
2022/05/26 10:45:39;;;;;;;1.80;0.90;;;23.40;89.10;;;;;;4995359;28;20456;-64
2022/05/26 10:48:10;;;;;;;2.50;1.13;;;23.50;89.70;;;;;;4995339;28;20533;-64
2022/05/26 10:50:43;;;;;;;1.60;1.20;;;23.50;88.80;;;;;;4995202;28;20474;-64
2022/05/26 10:53:18;;;;;;;3.57;1.23;;;23.20;87.90;;;;;;4995364;28;20801;-64
2022/05/26 10:55:52;;;;;;;1.20;1.10;;;23.00;89.30;;;;;;4995305;28;20437;-64
2022/05/26 10:58:22;;;;;;;0.97;0.83;;;22.80;88.70;;;;;;4995163;28;20462;-65
2022/05/26 11:00:55;;;;;;;1.03;1.03;;;22.70;90.70;;;;;;4994845;28;20485;-64
2022/05/26 11:03:29;;;;;;;2.00;1.23;;;22.60;91.70;;;;;;4995320;28;20465;-65
2022/05/26 11:06:03;;;;;;;2.13;0.90;;;22.50;91.10;;;;;;4995302;28;20441;-64
2022/05/26 11:08:42;;;;;;;2.50;1.07;;;22.40;91.00;;;;;;4995028;28;20441;-65
2022/05/26 11:11:14;;;;;;;1.10;1.10;;;22.50;90.90;;;;;;4994854;28;20477;-64
2022/05/26 11:13:48;;;;;;;0.97;0.87;;;22.60;92.90;;;;;;4994960;28;20521;-64
2022/05/26 11:19:18;;;;;;;2.47;2.27;;;22.70;91.10;;;;;;4994798;28;20812;-63
2022/05/26 11:21:46;;;;;;;2.80;1.00;;;22.90;91.70;;;;;;4994688;28;20484;-64
2022/05/26 11:24:13;;;;;;;1.40;0.93;;;23.10;92.20;;;;;;4994712;28;20465;-64
2022/05/26 11:26:46;;;;;;;2.87;1.07;;;23.10;91.00;;;;;;4994907;28;20860;-64
2022/05/26 11:29:18;;;;;;;3.87;1.40;;;23.20;91.00;;;;;;4995093;28;20438;-64
2022/05/26 11:37:31;;;;;;;2.03;1.23;;;23.20;91.20;;;;;;4994958;28;20537;-65
2022/05/26 11:40:00;;;;;;;1.10;1.10;;;23.00;89.70;;;;;;4994528;28;20462;-65
2022/05/26 11:42:31;;;;;;;1.00;1.00;;;23.00;90.80;;;;;;4994279;28;20485;-65
2022/05/26 11:45:15;;;;;;;1.60;1.40;;;22.80;90.90;;;;;;4994575;28;20917;-64
2022/05/26 11:47:51;;;;;;;1.83;1.67;;;22.80;91.40;;;;;;4998282;28;20442;-64
2022/05/26 11:50:46;;;;;;;1.57;1.47;;;22.70;91.20;;;;;;4997830;28;20457;-64
2022/05/26 11:53:36;;;;;;;2.87;1.30;;;22.90;91.80;;;;;;4995996;28;20457;-64
2022/05/26 11:56:05;;;;;;;1.30;1.20;;;23.00;91.60;;;;;;4996410;28;20442;-64
2022/05/26 11:58:38;;;;;;;2.20;1.10;;;23.20;92.10;;;;;;4996396;28;20509;-64
2022/05/26 12:01:35;;;;;;;5.17;1.10;;;23.30;91.30;;;;;;4995885;28;20912;-64
2022/05/26 12:04:23;;;;;;;4.30;1.43;;;23.40;89.60;;;;;;4995004;28;20456;-64
2022/05/26 12:06:57;;;;;;;1.93;1.30;;;23.30;90.40;;;;;;4994478;28;20434;-64
2022/05/26 12:09:40;;;;;;;2.30;1.73;;;23.10;91.00;;;;;;4994355;28;20441;-65
2022/05/26 12:12:08;;;;;;;1.33;1.23;;;22.90;90.40;;;;;;4994652;28;20496;-65
2022/05/26 12:14:43;;;;;;;2.03;1.60;;;22.70;91.50;;;;;;4994303;28;20480;-64
2022/05/26 12:17:32;;;;;;;1.93;1.07;;;22.50;90.80;;;;;;4994778;28;20433;-64
2022/05/26 12:20:03;;;;;;;2.70;1.50;;;22.40;92.70;;;;;;4994285;28;20512;-64
2022/05/26 12:22:32;;;;;;;2.20;1.83;;;22.30;92.60;;;;;;4994322;28;20474;-64
2022/05/26 12:25:20;;;;;;;5.77;2.03;;;22.20;92.50;;;;;;4994613;28;20453;-64
2022/05/26 12:28:06;;;;;;;2.60;1.33;;;22.10;94.00;;;;;;4994994;28;20548;-63
2022/05/26 12:30:39;;;;;;;1.40;1.30;;;22.30;94.30;;;;;;4994207;28;20606;-64
2022/05/26 12:33:30;;;;;;;1.83;1.33;;;22.30;93.60;;;;;;4994210;28;20444;-64
2022/05/26 12:36:03;;;;;;;1.60;1.50;;;22.50;93.30;;;;;;4993753;28;20442;-64
2022/05/26 12:38:39;;;;;;;2.20;1.10;;;22.70;93.60;;;;;;4993849;28;20591;-64
2022/05/26 12:41:15;;;;;;;1.83;1.47;;;22.80;93.30;;;;;;4997101;28;20842;-64
2022/05/26 12:44:18;;;;;;;1.30;1.30;;;23.00;92.50;;;;;;4997699;28;20460;-64
2022/05/26 12:46:53;;;;;;;2.60;1.33;;;23.00;92.00;;;;;;5001274;28;20452;-64
2022/05/26 12:49:45;;;;;;;1.70;1.20;;;23.00;92.40;;;;;;4999523;28;20437;-64
2022/05/26 12:52:16;;;;;;;1.30;1.20;;;22.90;91.30;;;;;;4997523;28;20473;-64
2022/05/26 12:54:48;;;;;;;1.47;1.37;;;22.90;93.00;;;;;;4997462;28;20492;-64
2022/05/26 12:57:22;;;;;;;5.90;1.37;;;22.80;92.70;;;;;;4997344;28;20825;-65
2022/05/26 12:59:49;;;;;;;2.20;1.30;;;22.70;92.80;;;;;;4997376;28;20477;-64
2022/05/26 13:02:16;;;;;;;1.33;1.13;;;22.60;92.10;;;;;;4996820;28;20878;-64
2022/05/26 13:04:44;;;;;;;1.40;1.30;;;22.40;93.20;;;;;;4997210;28;20457;-64
2022/05/26 13:07:15;;;;;;;1.80;1.47;;;22.40;94.40;;;;;;4996877;28;20832;-64
2022/05/26 13:09:44;;;;;;;2.83;1.40;;;22.30;93.40;;;;;;4997173;28;20841;-64
2022/05/26 13:12:17;;;;;;;1.30;1.20;;;22.30;94.30;;;;;;4997029;28;20481;-64
2022/05/26 13:14:48;;;;;;;2.90;2.50;;;22.10;92.90;;;;;;4997093;28;20441;-64
2022/05/26 13:17:18;;;;;;;2.10;1.40;;;21.80;92.10;;;;;;4996780;28;20909;-64
2022/05/26 13:19:46;;;;;;;6.20;1.50;;;21.80;92.70;;;;;;4996903;28;20486;-64
2022/05/26 13:22:15;;;;;;;2.13;1.40;;;21.60;93.40;;;;;;4996898;28;20474;-64
2022/05/26 13:24:51;;;;;;;1.57;1.47;;;21.60;94.10;;;;;;4996898;28;20461;-64
2022/05/26 13:27:18;;;;;;;1.53;1.40;;;21.60;93.90;;;;;;4996797;28;20441;-63
2022/05/26 13:29:48;;;;;;;2.80;1.10;;;21.30;93.80;;;;;;4996695;28;20454;-63
2022/05/26 13:35:16;;;;;;;2.00;1.87;;;21.10;94.80;;;;;;4996770;28;20425;-64
2022/05/26 13:37:44;;;;;;;1.70;1.60;;;21.10;95.60;;;;;;4996674;28;20477;-63
2022/05/26 13:40:15;;;;;;;3.33;1.70;;;21.20;96.20;;;;;;4996500;28;20482;-64
2022/05/26 13:42:44;;;;;;;1.73;1.37;;;21.30;96.30;;;;;;4996552;28;20530;-64
2022/05/26 13:45:21;;;;;;;1.10;1.00;;;21.30;95.60;;;;;;4996716;28;20454;-64
2022/05/26 13:47:48;;;;;;;1.63;1.53;;;21.30;94.50;;;;;;4996405;28;20508;-64
2022/05/26 13:50:14;;;;;;;2.27;1.23;;;21.30;93.80;;;;;;4995456;28;20449;-64
2022/05/26 13:52:42;;;;;;;1.40;1.33;;;21.30;94.00;;;;;;4996754;28;20457;-65
2022/05/26 13:55:19;;;;;;;1.50;1.30;;;21.30;93.30;;;;;;4996266;28;20460;-64
2022/05/26 13:57:49;;;;;;;1.10;1.10;;;21.30;94.00;;;;;;4996740;28;20557;-64
2022/05/26 14:00:23;;;;;;;1.50;1.10;;;21.40;94.00;;;;;;4996019;28;20517;-64
2022/05/26 14:02:53;;;;;;;1.57;1.00;;;21.40;94.40;;;;;;4996285;28;20441;-64
2022/05/26 14:05:22;;;;;;;1.30;1.07;;;21.50;94.20;;;;;;4996211;28;20461;-65
2022/05/26 14:08:01;;;;;;;1.00;0.90;;;21.60;93.10;;;;;;4996122;28;20465;-64
2022/05/26 14:10:30;;;;;;;1.80;1.30;;;21.60;93.50;;;;;;4996174;28;20442;-64
2022/05/26 14:13:03;;;;;;;1.50;1.07;;;21.70;93.10;;;;;;4996089;28;20464;-64
2022/05/26 14:15:47;;;;;;;3.20;1.30;;;21.70;94.00;;;;;;4996042;28;20442;-64
2022/05/26 14:18:25;;;;;;;1.20;1.20;;;21.90;93.50;;;;;;4996050;28;20422;-64
2022/05/26 14:21:01;;;;;;;4.50;1.20;;;22.00;93.20;;;;;;4995539;28;20833;-64
2022/05/26 14:23:28;;;;;;;7.23;2.07;;;22.00;93.90;;;;;;4998503;28;21007;-64
2022/05/26 14:26:01;;;;;;;1.30;1.30;;;22.10;95.70;;;;;;4998105;28;20460;-65
2022/05/26 14:28:37;;;;;;;1.80;1.27;;;22.40;95.60;;;;;;4997574;28;20489;-64
2022/05/26 14:31:16;;;;;;;1.87;1.30;;;22.50;91.70;;;;;;4995527;28;20993;-63
2022/05/26 14:33:57;;;;;;;1.10;1.10;;;22.60;93.80;;;;;;4995744;28;20543;-65
2022/05/26 14:36:24;;;;;;;2.33;1.50;;;22.90;93.70;;;;;;4995635;28;20529;-63
2022/05/26 14:38:50;;;;;;;3.53;1.30;;;23.20;91.00;;;;;;4995506;28;20458;-64
2022/05/26 14:41:17;;;;;;;2.20;1.40;;;23.30;91.40;;;;;;4995397;28;20485;-64
2022/05/26 14:43:46;;;;;;;1.50;1.40;;;23.50;92.30;;;;;;4995437;28;20461;-64
2022/05/26 14:46:14;;;;;;;2.20;1.00;;;23.60;90.80;;;;;;4995583;28;20504;-64
2022/05/26 14:48:42;;;;;;;1.27;1.20;;;23.60;90.00;;;;;;4995552;28;20464;-64
2022/05/26 14:51:09;;;;;;;1.43;1.00;;;23.50;88.30;;;;;;4995069;28;20512;-64
2022/05/26 14:56:20;;;;;;;1.40;1.40;;;23.50;90.90;;;;;;4995296;28;20414;-64
2022/05/26 14:58:47;;;;;;;3.17;1.40;;;23.50;91.50;;;;;;4995053;28;20504;-64
2022/05/26 15:01:15;;;;;;;1.17;1.10;;;23.30;89.30;;;;;;4994708;28;20481;-64
2022/05/26 15:03:41;;;;;;;0.90;0.90;;;23.20;90.40;;;;;;4994938;28;20454;-64
2022/05/26 15:06:08;;;;;;;2.43;0.97;;;23.10;89.50;;;;;;4995038;28;20454;-64
2022/05/26 15:08:42;;;;;;;1.77;1.07;;;23.00;90.00;;;;;;4995013;28;20462;-64
2022/05/26 15:11:09;;;;;;;1.47;1.47;;;22.90;89.60;;;;;;4995437;28;20850;-64
2022/05/26 15:13:36;;;;;;;2.00;1.40;;;22.80;90.60;;;;;;4994855;28;20826;-64
2022/05/26 15:16:03;;;;;;;2.07;1.60;;;22.70;91.90;;;;;;4994886;28;20463;-64
2022/05/26 15:18:31;;;;;;;1.50;1.40;;;22.70;92.60;;;;;;4994921;28;20461;-64
2022/05/26 15:20:58;;;;;;;1.70;1.33;;;22.80;92.20;;;;;;4994454;28;21000;-64
2022/05/26 15:23:24;;;;;;;4.10;1.50;;;22.80;92.30;;;;;;4995139;28;20446;-65
2022/05/26 15:28:48;;;;;;;1.43;1.33;;;22.80;92.80;;;;;;4970989;28;20452;-65
2022/05/26 15:31:15;;;;;;;1.03;1.03;;;22.80;92.60;;;;;;4994717;28;20478;-65
2022/05/26 15:33:43;;;;;;;1.53;1.43;;;22.70;92.60;;;;;;4994948;28;20454;-64
2022/05/26 15:36:12;;;;;;;1.67;1.50;;;22.60;92.30;;;;;;4994631;28;20461;-64
2022/05/26 15:38:42;;;;;;;1.40;1.30;;;22.70;93.00;;;;;;5004411;28;20453;-64
2022/05/26 15:41:10;;;;;;;1.30;1.30;;;22.80;92.50;;;;;;5010032;28;20485;-64
2022/05/26 15:43:37;;;;;;;2.80;1.50;;;22.80;92.80;;;;;;5010825;28;20788;-65
2022/05/26 15:46:08;;;;;;;3.37;1.40;;;22.80;92.60;;;;;;5009516;28;21011;-65
2022/05/26 15:48:35;;;;;;;1.30;1.20;;;23.00;92.20;;;;;;5002504;28;20446;-65
2022/05/26 15:51:04;;;;;;;1.50;1.40;;;23.10;91.50;;;;;;4997999;28;20976;-64
2022/05/26 15:53:32;;;;;;;1.47;1.37;;;23.10;91.00;;;;;;4996928;28;20842;-64
2022/05/26 15:56:02;;;;;;;2.03;1.47;;;23.10;88.60;;;;;;4995813;28;20457;-65
2022/05/26 15:58:30;;;;;;;2.37;1.60;;;23.10;89.90;;;;;;4995122;28;20945;-65
2022/05/26 16:00:58;;;;;;;1.87;1.77;;;23.10;89.40;;;;;;4994739;28;20485;-64
2022/05/26 16:03:26;;;;;;;1.50;1.40;;;23.10;89.60;;;;;;4994477;28;20812;-64
2022/05/26 16:05:53;;;;;;;1.27;1.23;;;23.10;88.90;;;;;;4994492;28;20480;-64
2022/05/26 16:08:21;;;;;;;1.40;1.23;;;23.10;88.70;;;;;;4994429;28;20458;-65
2022/05/26 16:10:48;;;;;;;1.70;1.60;;;23.10;89.40;;;;;;4993950;28;20988;-64
2022/05/26 16:13:16;;;;;;;3.23;1.80;;;23.10;90.30;;;;;;4994288;28;20457;-64
2022/05/26 16:15:47;;;;;;;2.90;1.30;;;23.10;88.60;;;;;;4998154;28;20625;-64
2022/05/26 16:18:15;;;;;;;1.50;1.23;;;23.10;90.50;;;;;;4998445;28;20442;-64
2022/05/26 16:20:42;;;;;;;1.53;1.43;;;23.10;90.10;;;;;;4998068;28;20486;-64
2022/05/26 16:23:17;;;;;;;1.40;1.30;;;23.20;89.30;;;;;;4998295;28;20803;-64
2022/05/26 16:25:47;;;;;;;1.23;1.13;;;23.20;90.20;;;;;;4998099;28;20802;-64
2022/05/26 16:28:13;;;;;;;5.30;1.57;;;23.10;90.00;;;;;;4999756;28;20484;-64
2022/05/26 16:30:40;;;;;;;1.30;1.27;;;23.10;90.20;;;;;;5000024;28;20500;-64
2022/05/26 16:33:07;;;;;;;1.77;1.30;;;23.10;90.90;;;;;;4999615;28;20504;-64
2022/05/26 16:38:25;;;;;;;1.80;1.50;;;23.00;89.30;;;;;;4998037;28;20421;-64
2022/05/26 16:40:53;;;;;;;2.70;1.50;;;22.80;87.40;;;;;;4998535;28;20486;-63
2022/05/26 16:43:20;;;;;;;1.10;1.10;;;22.70;88.70;;;;;;4997522;28;20453;-63
2022/05/26 16:45:47;;;;;;;3.27;1.00;;;22.70;90.00;;;;;;4997584;28;20457;-64
2022/05/26 16:48:14;;;;;;;1.40;1.30;;;22.60;90.00;;;;;;4997384;28;20826;-63
2022/05/26 16:50:41;;;;;;;1.10;1.00;;;22.60;89.50;;;;;;4997372;28;20481;-63
2022/05/26 16:53:09;;;;;;;4.80;1.50;;;22.50;89.10;;;;;;4997527;28;20493;-64
2022/05/26 16:55:39;;;;;;;1.40;1.27;;;22.40;90.30;;;;;;4997377;28;20548;-64
2022/05/26 16:58:07;;;;;;;1.33;1.23;;;22.40;89.70;;;;;;4997194;28;20909;-64
2022/05/26 17:00:34;;;;;;;2.10;1.20;;;22.40;89.50;;;;;;4997191;28;20486;-64
2022/05/26 17:03:03;;;;;;;2.10;1.30;;;22.30;90.20;;;;;;4997350;28;20452;-64
2022/05/26 17:05:30;;;;;;;2.07;1.30;;;22.30;89.70;;;;;;4997289;28;20814;-64
2022/05/26 17:07:57;;;;;;;2.53;1.10;;;22.30;90.00;;;;;;4997255;28;20457;-64
2022/05/26 17:10:27;;;;;;;1.40;1.20;;;22.20;90.00;;;;;;4997113;28;20458;-64
2022/05/26 17:21:11;;;;;;;1.20;1.10;;;21.80;89.90;;;;;;4996937;28;20550;-63
2022/05/26 17:23:41;;;;;;;1.30;1.20;;;21.70;90.30;;;;;;4996726;28;20450;-63
2022/05/26 17:26:12;;;;;;;1.40;1.30;;;21.70;90.00;;;;;;4996746;28;20446;-63
2022/05/26 17:28:39;;;;;;;2.30;1.00;;;21.60;90.60;;;;;;4996899;28;20461;-63
2022/05/26 17:31:07;;;;;;;1.53;1.43;;;21.50;91.00;;;;;;4996750;28;20469;-63
2022/05/26 17:33:34;;;;;;;1.83;1.47;;;21.50;90.50;;;;;;4996808;28;20458;-63
2022/05/26 17:36:01;;;;;;;1.13;1.13;;;21.40;90.80;;;;;;4996765;28;20557;-64
2022/05/26 17:38:28;;;;;;;1.80;1.10;;;21.30;90.90;;;;;;4996683;28;20885;-63
2022/05/26 17:40:55;;;;;;;1.60;1.20;;;21.10;90.80;;;;;;4996504;28;20486;-63
2022/05/26 17:43:22;;;;;;;1.37;1.27;;;21.10;91.40;;;;;;4996577;28;20859;-63
2022/05/26 17:45:49;;;;;;;1.30;1.30;;;21.00;91.50;;;;;;4996520;28;20465;-64
2022/05/26 17:48:17;;;;;;;1.13;1.13;;;21.00;91.70;;;;;;4996455;28;20457;-64
2022/05/26 17:50:48;;;;;;;2.43;1.50;;;20.90;91.60;;;;;;4996056;28;20470;-64
2022/05/26 17:53:17;;;;;;;1.13;1.03;;;20.80;91.70;;;;;;4996488;28;20458;-64